Aeroporto :
LOGIN :

Iscrizione | Disclaimer

   EN    FR    IT 

 










Sommario :    VFR   VFR Marginale   IFR   IFR Intensivo   IFR Molto Intensivo
Visibilità : 
Base nubi : 
>= 8 km
>= 3000ft
5 / 8 km
1000 / 3000 ft
1500m / 5 km
500 / 1000 ft
800 / 1500m
200 / 500 ft
< 800m
< 200 ft
Simboli :   Temporali  Nebbia  Neve Forte  Precipitazioni Forti  Vento > 20 kt
SIGMETs :   Varie  Temporali  Ghiacco  Turbolenza  Onda orograficha  Ceneri Vulcaniche






- Altitudine del aeroporto : 20 ft
- Codice IATA : TIV


LYTV - Tivat - Montenegro

ULTIMO METAR :
  • 190600Z 00000KT CAVOK 29/20 Q1013 NOSIG

METARs OBSOLETI :
  • 190530Z 00000KT CAVOK 27/22 Q1013 NOSIG
  • 190500Z 00000KT CAVOK 24/20 Q1013 NOSIG
  • 190430Z 00000KT CAVOK 22/20 Q1013 NOSIG
  • 190400Z 00000KT CAVOK 22/19 Q1013 NOSIG
  • 190330Z AUTO VRB01KT CAVOK 21/19 Q1013
  • 190300Z AUTO VRB02KT CAVOK 22/20 Q1012
  • 190230Z AUTO VRB01KT CAVOK 22/19 Q1012
  • 190200Z AUTO 00000KT CAVOK 22/19 Q1012
  • 190130Z AUTO 00000KT CAVOK 22/19 Q1012

TAF TAF LYTV
Valido dal 19 a 06 ore il 20 a 06 ore UTC


190500Z 1906/2006 23007KT CAVOK TX35/1914Z TN22/2003Z
PROB30
TEMPO 1912/1917 TS FEW040CB SCT050



MetMap, La meteo Aeronautica in un colpo d'occhio ! - Copyright ORBIFLY Dicembre 2007 - Disclaimer

ORBIFLY MET'MAP TEAM :

Programmazione e sviluppo : Alexandra Zaïnal
Concezione : Baudouin d'Aumeries
Supporto tecnico e logistico : Manuel Goepfert
Aiuto : Marc-Olivier Méhu
Aiuto per la traduzione : Arnaldo La Scala




FONTI E CREDITI :

   NOAA